createdAt,value
2018-06-09T00:01:05.308Z,99.90
2018-06-09T00:03:34.349Z,99.90
2018-06-09T00:06:04.863Z,99.90
2018-06-09T00:08:33.398Z,99.90
2018-06-09T00:11:01.909Z,99.90
2018-06-09T00:13:30.402Z,99.90
2018-06-09T00:15:59.037Z,99.90
2018-06-09T00:18:27.797Z,99.90
2018-06-09T00:20:56.318Z,99.90
2018-06-09T00:23:24.805Z,99.90
2018-06-09T00:25:53.297Z,99.90
2018-06-09T00:28:22.147Z,99.90
2018-06-09T00:30:50.640Z,99.90
2018-06-09T00:33:19.115Z,99.90
2018-06-09T00:35:47.607Z,99.90
2018-06-09T00:38:16.254Z,99.90
2018-06-09T00:40:44.746Z,99.90
2018-06-09T00:43:13.249Z,99.90
2018-06-09T00:45:41.726Z,99.90
2018-06-09T00:48:10.217Z,99.90
2018-06-09T00:50:38.815Z,99.90
2018-06-09T00:53:07.277Z,99.90
2018-06-09T00:55:35.742Z,99.90
2018-06-09T00:58:04.258Z,99.90
2018-06-09T01:00:32.745Z,99.90
2018-06-09T01:03:14.626Z,99.90
2018-06-09T01:05:44.244Z,99.90
2018-06-09T01:08:12.694Z,99.90
2018-06-09T01:10:41.191Z,99.90
2018-06-09T01:13:09.652Z,99.90
2018-06-09T01:15:38.130Z,99.90
2018-06-09T01:18:06.642Z,99.90
2018-06-09T01:20:36.114Z,99.90
2018-06-09T01:23:04.610Z,99.90
2018-06-09T01:25:33.070Z,99.90
2018-06-09T01:28:02.989Z,99.90
2018-06-09T01:30:31.466Z,99.90
2018-06-09T01:33:00.322Z,99.90
2018-06-09T01:35:28.795Z,99.90
2018-06-09T01:37:58.343Z,99.90
2018-06-09T01:40:27.088Z,99.90
2018-06-09T01:42:55.946Z,99.90
2018-06-09T02:29:04.846Z,99.90
2018-06-09T02:31:33.651Z,99.90
2018-06-09T02:34:02.859Z,99.90
2018-06-09T02:36:31.580Z,99.90
2018-06-09T02:39:00.127Z,99.90
2018-06-09T02:41:28.638Z,99.90
2018-06-09T02:43:57.144Z,99.90
2018-06-09T02:46:25.621Z,99.90
2018-06-09T02:48:54.097Z,99.90
2018-06-09T02:51:22.566Z,99.90
2018-06-09T02:53:51.074Z,99.90
2018-06-09T02:56:19.547Z,99.90
2018-06-09T02:58:48.058Z,99.90
2018-06-09T03:01:16.613Z,99.90
2018-06-09T03:03:45.125Z,99.90
2018-06-09T03:06:13.914Z,99.90
2018-06-09T03:08:42.614Z,99.90
2018-06-09T03:11:11.116Z,99.90
2018-06-09T03:13:39.598Z,99.90
2018-06-09T03:16:08.105Z,99.90
2018-06-09T03:21:04.783Z,99.90
2018-06-09T03:23:33.316Z,99.90
2018-06-09T03:26:01.784Z,99.90
2018-06-09T03:28:30.316Z,99.90
2018-06-09T03:30:58.806Z,99.90
2018-06-09T03:33:27.287Z,99.90
2018-06-09T03:35:55.790Z,99.90
2018-06-09T03:38:24.274Z,99.90
2018-06-09T03:40:52.762Z,99.90
2018-06-09T03:43:21.346Z,99.90
2018-06-09T03:45:49.997Z,99.90
2018-06-09T03:48:18.494Z,99.90
2018-06-09T03:50:47.266Z,99.90
2018-06-09T03:53:16.654Z,99.90
2018-06-09T03:55:45.185Z,99.90
2018-06-09T03:58:13.654Z,99.90
2018-06-09T04:00:42.122Z,99.90
2018-06-09T04:03:10.624Z,99.90
2018-06-09T04:05:39.104Z,99.90
2018-06-09T04:08:07.607Z,99.90
2018-06-09T04:10:36.097Z,99.90
2018-06-09T04:13:04.806Z,99.90
2018-06-09T04:15:33.309Z,99.90
2018-06-09T04:18:02.022Z,99.90
2018-06-09T04:20:30.495Z,99.90
2018-06-09T04:22:59.406Z,99.90
2018-06-09T04:25:27.903Z,99.90
2018-06-09T04:27:56.406Z,99.90
2018-06-09T04:30:24.883Z,99.90
2018-06-09T04:32:53.359Z,99.90
2018-06-09T04:35:21.878Z,99.90
2018-06-09T04:37:50.414Z,99.90
2018-06-09T04:40:18.883Z,99.90
2018-06-09T04:42:47.374Z,99.90
2018-06-09T04:45:16.518Z,99.90
2018-06-09T04:47:44.995Z,99.90
2018-06-09T04:50:13.475Z,99.90
2018-06-09T04:52:41.984Z,99.90
2018-06-09T04:55:10.647Z,99.90
2018-06-09T04:57:39.144Z,99.90
2018-06-09T05:00:07.654Z,99.90
2018-06-09T05:02:36.215Z,99.90
2018-06-09T05:05:04.881Z,99.90
2018-06-09T05:07:33.366Z,99.90
2018-06-09T05:10:01.846Z,99.90
2018-06-09T05:12:30.339Z,99.90
2018-06-09T05:14:58.816Z,99.90
2018-06-09T05:17:27.366Z,99.90
2018-06-09T05:19:55.838Z,99.90
2018-06-09T05:22:24.335Z,99.90
2018-06-09T05:24:52.810Z,99.90
2018-06-09T05:27:21.679Z,99.90
2018-06-09T05:29:50.159Z,99.90
2018-06-09T05:32:18.657Z,99.90
2018-06-09T05:34:47.174Z,99.90
2018-06-09T05:37:15.654Z,99.90
2018-06-09T05:39:44.133Z,99.90
2018-06-09T05:42:12.631Z,99.90
2018-06-09T05:44:41.119Z,99.90
2018-06-09T05:47:10.178Z,99.90
2018-06-09T05:49:38.679Z,99.90
2018-06-09T05:52:07.149Z,99.90
2018-06-09T05:54:35.622Z,99.90
2018-06-09T05:57:04.094Z,99.90
2018-06-09T05:59:32.566Z,99.90
2018-06-09T06:02:01.074Z,99.90
2018-06-09T06:04:29.591Z,99.90
2018-06-09T06:06:58.123Z,99.90
2018-06-09T06:09:26.623Z,99.90
2018-06-09T06:11:55.116Z,99.90
2018-06-09T06:14:23.942Z,99.90
2018-06-09T06:16:52.627Z,99.90
2018-06-09T06:19:21.686Z,99.90
2018-06-09T06:21:50.169Z,99.90
2018-06-09T06:24:18.991Z,99.90
2018-06-09T06:26:48.855Z,99.90
2018-06-09T06:29:17.358Z,99.90
2018-06-09T06:31:45.851Z,99.90
2018-06-09T06:34:14.330Z,99.90
2018-06-09T06:36:42.803Z,99.90
2018-06-09T06:39:11.294Z,99.90
2018-06-09T06:41:39.791Z,99.90
2018-06-09T06:44:08.260Z,99.90
2018-06-09T06:46:37.485Z,99.70
2018-06-09T06:49:06.359Z,99.80
2018-06-09T06:51:35.411Z,99.80
2018-06-09T06:54:03.958Z,99.90
2018-06-09T06:56:32.507Z,99.40
2018-06-09T06:59:01.534Z,99.40
2018-06-09T07:01:30.033Z,99.40
2018-06-09T07:03:58.539Z,99.70
2018-06-09T07:06:27.059Z,98.80
2018-06-09T07:08:55.638Z,95.40
2018-06-09T07:11:24.142Z,92.60
2018-06-09T07:13:53.586Z,91.40
2018-06-09T07:16:22.438Z,91.20
2018-06-09T07:18:50.941Z,92.20
2018-06-09T07:21:19.442Z,91.70
2018-06-09T07:23:47.902Z,87.90
2018-06-09T07:26:16.406Z,84.10
2018-06-09T07:28:44.906Z,82.20
2018-06-09T07:31:13.410Z,77.30
2018-06-09T07:33:41.879Z,74.70
2018-06-09T07:36:10.362Z,74.50
2018-06-09T07:38:38.850Z,75.70
2018-06-09T07:41:07.394Z,77.00
2018-06-09T07:43:35.890Z,78.60
2018-06-09T07:46:04.423Z,79.10
2018-06-09T07:48:33.220Z,78.90
2018-06-09T07:51:02.523Z,79.70
2018-06-09T07:53:31.547Z,75.80
2018-06-09T07:56:00.087Z,72.20
2018-06-09T07:58:28.596Z,68.00
2018-06-09T08:00:57.083Z,67.90
2018-06-09T08:03:25.569Z,68.20
2018-06-09T08:05:54.040Z,66.70
2018-06-09T08:08:22.536Z,64.20
2018-06-09T08:13:19.266Z,66.00
2018-06-09T08:15:47.910Z,65.90
2018-06-09T08:18:16.470Z,66.40
2018-06-09T08:20:45.034Z,64.70
2018-06-09T08:23:13.555Z,63.50
2018-06-09T08:25:42.836Z,65.10
2018-06-09T08:28:13.239Z,63.50
2018-06-09T08:30:42.610Z,63.20
2018-06-09T08:33:12.694Z,63.80
2018-06-09T08:35:43.342Z,64.50
2018-06-09T08:38:12.692Z,61.80
2018-06-09T08:40:42.183Z,61.80
2018-06-09T08:43:11.265Z,62.20
2018-06-09T08:48:09.114Z,59.40
2018-06-09T08:50:38.203Z,62.30
2018-06-09T08:53:07.731Z,65.80
2018-06-09T08:55:37.265Z,69.20
2018-06-09T08:58:05.750Z,72.60
2018-06-09T09:00:34.739Z,75.50
2018-06-09T09:03:03.501Z,74.20
2018-06-09T09:05:32.205Z,76.10
2018-06-09T09:08:00.734Z,78.80
2018-06-09T09:10:29.258Z,74.00
2018-06-09T09:12:57.737Z,71.60
2018-06-09T09:15:26.241Z,72.50
2018-06-09T09:17:54.726Z,70.90
2018-06-09T09:20:23.210Z,70.60
2018-06-09T09:22:51.684Z,68.70
2018-06-09T09:25:20.164Z,72.10
2018-06-09T09:27:48.714Z,71.00
2018-06-09T09:30:17.198Z,72.10
2018-06-09T09:32:45.718Z,71.80
2018-06-09T09:35:14.609Z,72.50
2018-06-09T09:37:43.091Z,74.20
2018-06-09T09:40:11.575Z,76.70
2018-06-09T09:42:40.298Z,77.20
2018-06-09T09:45:08.836Z,78.20
2018-06-09T09:47:37.331Z,74.20
2018-06-09T09:50:05.818Z,74.00
2018-06-09T09:52:35.308Z,75.60
2018-06-09T09:55:03.890Z,75.90
2018-06-09T09:57:42.711Z,76.40
2018-06-09T10:00:11.650Z,76.20
2018-06-09T10:02:41.393Z,77.00
2018-06-09T10:05:09.912Z,76.10
2018-06-09T10:07:38.482Z,78.10
2018-06-09T10:10:06.990Z,75.80
2018-06-09T10:12:35.479Z,75.60
2018-06-09T10:15:04.041Z,76.50
2018-06-09T10:17:32.546Z,78.60
2018-06-09T10:20:01.074Z,79.80
2018-06-09T10:24:57.753Z,76.90
2018-06-09T10:27:26.254Z,79.40
2018-06-09T10:29:54.759Z,77.50
2018-06-09T10:32:23.302Z,78.50
2018-06-09T10:34:51.809Z,80.00
2018-06-09T10:37:20.741Z,81.00
2018-06-09T10:39:49.244Z,80.90
2018-06-09T10:42:17.742Z,79.50
2018-06-09T10:44:46.390Z,81.00
2018-06-09T10:47:15.259Z,83.50
2018-06-09T10:49:43.818Z,81.10
2018-06-09T10:52:12.318Z,80.90
2018-06-09T10:54:41.075Z,82.50
2018-06-09T10:57:10.742Z,78.90
2018-06-09T10:59:40.202Z,78.90
2018-06-09T11:02:09.745Z,82.20
2018-06-09T11:04:40.111Z,79.50
2018-06-09T11:07:08.824Z,81.30
2018-06-09T11:09:37.497Z,80.70
2018-06-09T11:12:07.031Z,79.30
2018-06-09T11:14:36.450Z,80.10
2018-06-09T11:17:04.994Z,82.80
2018-06-09T11:19:33.630Z,80.20
2018-06-09T11:22:02.202Z,81.90
2018-06-09T11:24:30.727Z,82.10
2018-06-09T11:26:59.354Z,80.80
2018-06-09T11:29:27.870Z,81.00
2018-06-09T11:31:56.410Z,83.10
2018-06-09T11:34:24.882Z,83.50
2018-06-09T11:36:53.827Z,80.10
2018-06-09T11:39:22.492Z,81.00
2018-06-09T11:41:51.461Z,80.60
2018-06-09T11:44:20.335Z,84.30
2018-06-09T11:46:48.935Z,79.40
2018-06-09T11:49:17.684Z,83.70
2018-06-09T11:51:46.234Z,83.90
2018-06-09T11:54:14.754Z,83.30
2018-06-09T11:56:43.316Z,82.80
2018-06-09T11:59:11.839Z,82.90
2018-06-09T12:01:42.302Z,83.90
2018-06-09T12:04:12.602Z,82.80
2018-06-09T12:06:43.076Z,81.30
2018-06-09T12:09:12.054Z,82.00
2018-06-09T12:11:40.941Z,82.50
2018-06-09T12:14:09.853Z,85.20
2018-06-09T12:16:40.350Z,87.10
2018-06-09T12:19:09.631Z,88.30
2018-06-09T12:21:40.736Z,84.50
2018-06-09T12:24:09.240Z,80.30
2018-06-09T12:26:38.982Z,85.50
2018-06-09T12:29:09.999Z,81.00
2018-06-09T12:31:38.558Z,82.20
2018-06-09T12:34:12.262Z,81.90
2018-06-09T12:36:41.916Z,84.40
2018-06-09T12:39:11.395Z,84.30
2018-06-09T12:41:41.911Z,87.60
2018-06-09T12:44:10.408Z,83.20
2018-06-09T12:46:38.923Z,81.10
2018-06-09T12:49:07.439Z,83.20
2018-06-09T12:51:36.776Z,85.50
2018-06-09T12:54:05.714Z,87.20
2018-06-09T12:56:34.263Z,86.30
2018-06-09T12:59:02.782Z,81.50
2018-06-09T13:01:31.333Z,84.00
2018-06-09T13:03:59.871Z,84.10
2018-06-09T13:06:28.403Z,82.40
2018-06-09T13:08:56.914Z,82.80
2018-06-09T13:11:25.494Z,80.40
2018-06-09T13:13:54.004Z,81.90
2018-06-09T13:16:22.539Z,84.30
2018-06-09T13:18:51.192Z,85.10
2018-06-09T13:21:19.998Z,81.40
2018-06-09T13:23:48.554Z,83.80
2018-06-09T13:26:18.444Z,82.20
2018-06-09T13:28:47.025Z,81.80
2018-06-09T13:31:15.554Z,82.50
2018-06-09T13:33:44.094Z,80.70
2018-06-09T13:36:12.632Z,82.00
2018-06-09T13:38:41.202Z,84.10
2018-06-09T13:41:09.730Z,84.90
2018-06-09T13:43:38.535Z,86.90
2018-06-09T13:46:07.632Z,85.60
2018-06-09T13:48:36.150Z,85.60
2018-06-09T13:51:05.034Z,87.20
2018-06-09T13:53:33.787Z,85.40
2018-06-09T13:56:02.626Z,83.50
2018-06-09T13:58:31.147Z,83.30
2018-06-09T14:00:59.954Z,88.20
2018-06-09T14:03:28.878Z,83.60
2018-06-09T14:05:58.003Z,84.60
2018-06-09T14:08:26.545Z,84.90
2018-06-09T14:10:55.146Z,84.30
2018-06-09T14:13:24.218Z,84.80
2018-06-09T14:15:52.834Z,85.40
2018-06-09T14:18:21.359Z,80.20
2018-06-09T14:20:49.990Z,80.50
2018-06-09T14:23:18.788Z,81.00
2018-06-09T14:25:49.155Z,81.50
2018-06-09T14:28:18.020Z,80.70
2018-06-09T14:30:47.379Z,81.20
2018-06-09T14:33:16.433Z,81.00
2018-06-09T14:35:45.814Z,80.90
2018-06-09T14:38:14.455Z,80.10
2018-06-09T14:40:43.059Z,83.40
2018-06-09T14:43:11.702Z,80.80
2018-06-09T14:45:40.198Z,81.10
2018-06-09T14:48:08.811Z,80.60
2018-06-09T14:50:37.665Z,82.10
2018-06-09T14:53:06.323Z,81.20
2018-06-09T14:55:35.574Z,83.00
2018-06-09T14:58:05.203Z,84.70
2018-06-09T15:00:33.753Z,81.50
2018-06-09T15:03:02.746Z,82.00
2018-06-09T15:05:31.342Z,83.10
2018-06-09T15:08:00.051Z,81.50
2018-06-09T15:10:30.619Z,81.50
2018-06-09T15:12:59.135Z,78.20
2018-06-09T15:15:27.865Z,79.80
2018-06-09T15:17:56.386Z,79.50
2018-06-09T15:20:24.947Z,79.50
2018-06-09T15:22:53.446Z,80.80
2018-06-09T15:25:22.792Z,84.30
2018-06-09T15:27:51.318Z,83.60
2018-06-09T15:30:20.230Z,82.20
2018-06-09T15:32:49.682Z,79.30
2018-06-09T15:35:18.217Z,82.20
2018-06-09T15:37:46.895Z,81.40
2018-06-09T15:40:15.402Z,80.00
2018-06-09T15:42:43.920Z,80.90
2018-06-09T15:45:12.450Z,81.10
2018-06-09T15:47:41.094Z,81.00
2018-06-09T15:50:09.618Z,82.30
2018-06-09T15:52:38.171Z,81.60
2018-06-09T15:55:06.665Z,80.20
2018-06-09T15:57:35.213Z,79.40
2018-06-09T16:00:03.866Z,79.90
2018-06-09T16:02:32.428Z,81.40
2018-06-09T16:05:00.952Z,81.30
2018-06-09T16:07:29.469Z,80.70
2018-06-09T16:09:58.698Z,80.40
2018-06-09T16:12:27.951Z,80.80
2018-06-09T16:14:57.122Z,80.00
2018-06-09T16:17:26.001Z,80.10
2018-06-09T16:19:54.750Z,80.00
2018-06-09T16:22:23.246Z,79.20
2018-06-09T16:24:52.690Z,81.50
2018-06-09T16:27:22.203Z,81.30
2018-06-09T16:29:51.502Z,80.70
2018-06-09T16:34:48.327Z,81.70
2018-06-09T16:37:16.978Z,81.50
2018-06-09T16:39:45.475Z,81.10
2018-06-09T16:42:14.064Z,81.50
2018-06-09T16:44:42.747Z,83.10
2018-06-09T16:47:11.582Z,82.60
2018-06-09T16:49:40.151Z,83.90
2018-06-09T16:52:08.739Z,85.70
2018-06-09T16:54:37.708Z,85.20
2018-06-09T16:57:06.398Z,86.50
2018-06-09T16:59:35.129Z,87.20
2018-06-09T17:02:04.315Z,87.90
2018-06-09T17:04:32.863Z,88.70
2018-06-09T17:09:30.502Z,88.70
2018-06-09T17:11:59.283Z,89.50
2018-06-09T17:14:27.807Z,89.30
2018-06-09T17:16:57.201Z,90.00
2018-06-09T17:19:25.922Z,89.80
2018-06-09T17:21:54.463Z,90.90
2018-06-09T17:24:23.566Z,91.00
2018-06-09T17:26:52.503Z,90.80
2018-06-09T17:29:21.029Z,90.50
2018-06-09T17:31:50.252Z,90.60
2018-06-09T17:34:18.763Z,90.70
2018-06-09T17:36:47.539Z,90.70
2018-06-09T17:39:16.062Z,90.80
2018-06-09T17:41:44.579Z,91.10
2018-06-09T17:44:13.123Z,91.40
2018-06-09T17:46:41.672Z,91.40
2018-06-09T17:49:10.190Z,90.60
2018-06-09T17:51:39.072Z,89.80
2018-06-09T17:54:09.638Z,89.50
2018-06-09T17:56:38.141Z,89.10
2018-06-09T17:59:06.635Z,89.30
2018-06-09T18:01:35.166Z,89.40
2018-06-09T18:04:04.650Z,89.20
2018-06-09T18:06:33.682Z,89.80
2018-06-09T18:09:02.238Z,90.00
2018-06-09T18:11:31.302Z,90.20
2018-06-09T18:13:59.825Z,90.50
2018-06-09T18:16:28.323Z,90.60
2018-06-09T18:18:56.814Z,90.60
2018-06-09T18:21:25.307Z,90.90
2018-06-09T18:23:53.820Z,90.90
2018-06-09T18:26:22.336Z,91.30
2018-06-09T18:28:50.834Z,91.80
2018-06-09T18:31:19.347Z,91.80
2018-06-09T18:33:47.881Z,92.30
2018-06-09T18:36:16.590Z,92.30
2018-06-09T18:38:45.113Z,92.70
2018-06-09T18:41:15.203Z,92.60
2018-06-09T18:43:43.734Z,92.80
2018-06-09T18:46:12.431Z,93.20
2018-06-09T18:48:40.939Z,93.80
2018-06-09T18:51:10.538Z,93.90
2018-06-09T18:53:39.391Z,94.20
2018-06-09T18:56:07.878Z,94.50
2018-06-09T18:58:36.462Z,94.80
2018-06-09T19:01:05.127Z,95.20
2018-06-09T19:03:33.608Z,95.50
2018-06-09T19:06:02.515Z,95.60
2018-06-09T19:08:32.471Z,95.40
2018-06-09T19:11:01.228Z,95.50
2018-06-09T19:13:29.713Z,96.20
2018-06-09T19:15:58.202Z,95.60
2018-06-09T19:18:26.698Z,95.90
2018-06-09T19:20:55.203Z,95.70
2018-06-09T19:23:23.731Z,95.90
2018-06-09T19:25:52.235Z,96.10
2018-06-09T19:28:20.766Z,96.10
2018-06-09T19:30:49.263Z,96.30
2018-06-09T19:33:17.925Z,96.50
2018-06-09T19:35:47.060Z,96.50
2018-06-09T19:38:15.638Z,96.50
2018-06-09T19:40:45.323Z,96.30
2018-06-09T19:43:14.067Z,96.50
2018-06-09T19:45:43.827Z,96.50
2018-06-09T19:48:12.359Z,97.00
2018-06-09T19:50:41.277Z,96.50
2018-06-09T19:53:10.582Z,96.60
2018-06-09T19:58:07.353Z,97.10
2018-06-09T20:00:37.003Z,97.70
2018-06-09T20:03:07.046Z,94.80
2018-06-09T20:05:35.939Z,88.40
2018-06-09T20:08:04.559Z,88.10
2018-06-09T20:10:34.010Z,86.00
2018-06-09T20:13:03.004Z,84.30
2018-06-09T20:15:32.919Z,87.40
2018-06-09T20:18:01.477Z,88.80
2018-06-09T20:20:30.254Z,89.70
2018-06-09T20:22:58.986Z,90.50
2018-06-09T20:25:27.516Z,90.70
2018-06-09T20:27:58.089Z,90.10
2018-06-09T20:30:27.278Z,94.00
2018-06-09T20:32:56.084Z,94.70
2018-06-09T20:38:29.220Z,97.90
2018-06-09T20:41:06.867Z,98.80
2018-06-09T20:46:55.608Z,99.90
